createdAt,value
2023-01-03T00:00:46.289Z,11.20
2023-01-03T00:03:17.367Z,10.03
2023-01-03T00:05:49.905Z,8.10
2023-01-03T00:08:19.339Z,8.50
2023-01-03T00:10:48.801Z,8.10
2023-01-03T00:13:19.460Z,8.90
2023-01-03T00:15:49.566Z,8.33
2023-01-03T00:18:19.380Z,8.50
2023-01-03T00:20:49.387Z,8.55
2023-01-03T00:23:18.810Z,8.28
2023-01-03T00:25:48.467Z,9.03
2023-01-03T00:28:17.892Z,8.30
2023-01-03T00:30:47.396Z,8.73
2023-01-03T00:33:16.888Z,8.20
2023-01-03T00:35:46.636Z,8.53
2023-01-03T00:38:16.129Z,8.50
2023-01-03T00:40:45.671Z,8.93
2023-01-03T00:43:30.571Z,8.50
2023-01-03T00:46:00.991Z,9.90
2023-01-03T00:48:30.946Z,9.23
2023-01-03T00:51:08.330Z,9.10
2023-01-03T00:53:39.808Z,8.20
2023-01-03T00:56:12.893Z,8.30
2023-01-03T00:58:42.458Z,8.30
2023-01-03T01:01:21.636Z,8.30
2023-01-03T01:03:56.918Z,8.10
2023-01-03T01:06:30.039Z,7.80
2023-01-03T01:09:01.688Z,7.28
2023-01-03T01:11:32.504Z,7.22
2023-01-03T01:14:02.573Z,7.37
2023-01-03T01:16:34.368Z,7.27
2023-01-03T01:19:03.789Z,8.15
2023-01-03T01:21:33.789Z,8.27
2023-01-03T01:24:03.287Z,7.43
2023-01-03T01:26:32.791Z,7.90
2023-01-03T01:29:02.664Z,7.53
2023-01-03T01:31:32.485Z,7.08
2023-01-03T01:34:01.962Z,7.50
2023-01-03T01:36:36.361Z,7.13
2023-01-03T01:39:08.725Z,7.50
2023-01-03T01:41:57.472Z,7.30
2023-01-03T01:44:44.932Z,6.17
2023-01-03T01:47:20.337Z,6.10
2023-01-03T01:49:52.986Z,6.15
2023-01-03T01:52:24.610Z,5.53
2023-01-03T01:54:55.675Z,4.72
2023-01-03T01:57:27.425Z,4.95
2023-01-03T01:59:56.863Z,5.10
2023-01-03T02:02:26.398Z,5.03
2023-01-03T02:04:58.360Z,5.10
2023-01-03T02:07:28.414Z,5.20
2023-01-03T02:10:00.038Z,5.23
2023-01-03T02:12:50.583Z,5.13
2023-01-03T02:15:45.329Z,4.87
2023-01-03T02:18:27.116Z,5.03
2023-01-03T02:21:15.684Z,5.12
2023-01-03T02:24:08.289Z,4.60
2023-01-03T02:27:01.982Z,5.00
2023-01-03T02:29:46.192Z,4.65
2023-01-03T02:32:36.826Z,5.30
2023-01-03T02:35:31.887Z,5.40
2023-01-03T02:38:16.894Z,5.10
2023-01-03T02:40:52.228Z,5.40
2023-01-03T02:43:40.374Z,5.60
2023-01-03T02:46:25.066Z,5.70
2023-01-03T02:49:26.261Z,5.67
2023-01-03T02:52:01.857Z,5.87
2023-01-03T02:54:34.398Z,5.97
2023-01-03T02:57:07.252Z,6.03
2023-01-03T02:59:48.522Z,5.70
2023-01-03T03:02:20.617Z,5.37
2023-01-03T03:04:53.534Z,5.47
2023-01-03T03:07:26.095Z,5.42
2023-01-03T03:10:15.911Z,6.00
2023-01-03T03:13:06.744Z,6.22
2023-01-03T03:15:39.660Z,6.50
2023-01-03T03:18:12.128Z,6.87
2023-01-03T03:21:00.152Z,7.28
2023-01-03T03:25:50.650Z,7.15
2023-01-03T03:28:35.407Z,6.45
2023-01-03T03:31:36.531Z,6.55
2023-01-03T03:34:23.907Z,7.33
2023-01-03T22:55:13.012Z,50.15
2023-01-03T22:57:42.437Z,42.27
2023-01-03T23:00:13.673Z,52.78
2023-01-03T23:02:43.200Z,55.20
2023-01-03T23:05:14.067Z,55.90
2023-01-03T23:07:45.298Z,55.55
2023-01-03T23:10:15.710Z,55.98
2023-01-03T23:13:00.721Z,69.30
2023-01-03T23:15:33.577Z,57.88
2023-01-03T23:18:02.998Z,60.95
2023-01-03T23:20:35.222Z,60.73
2023-01-03T23:23:06.334Z,46.92
2023-01-03T23:25:37.303Z,50.20
2023-01-03T23:28:06.893Z,48.55
2023-01-03T23:30:37.464Z,58.45
2023-01-03T23:33:06.978Z,51.48
2023-01-03T23:35:37.155Z,51.10
2023-01-03T23:38:06.655Z,41.08
2023-01-03T23:40:37.665Z,36.73
2023-01-03T23:43:08.072Z,33.33
2023-01-03T23:45:38.496Z,32.17
2023-01-03T23:48:08.107Z,46.60
2023-01-03T23:50:37.538Z,33.53
2023-01-03T23:53:07.024Z,32.05
2023-01-03T23:55:38.163Z,35.00
2023-01-03T23:58:07.593Z,33.02
